Hauptseite
METAR-TAF:

METAR-TAF

Flughäfen :

Seyresse

Dax, Frankreich

Breite: 43-41N, Länge: 001-04W, Höhe: 32 m

Beobachtung

Neuester Wetterbericht von vor 18 Minuten, um 19:00 UTC
Wind 2 kt aus Ost
Temperatur 10°C
Luftfeuchtigkeit 93%
Luftdruck 1009 hPa
Sichtweite 10 km oder mehr

METAR: LFBY 181900Z AUTO 10002KT 9999 // NSC 10/09 Q1009

Zeit: 20:18 (19:18 UTC)


TAF: fehlend

Wetterbeobachtungen und Prognosen von mehr als 4000 Flughäfen (METAR und TAF Bericht).

Die verfügbaren Stationen werden durch gelbe und rote Markierungen auf der Karte dargestellt.

Führen Sie die Maus auf sie, um den Namen der Station zu sehen.

Darauf klicken, um die Beobachtung von Wetterbeobachtungen und Prognosen zu sehen.

Um die Karte zu ändern : klicken Sie auf den grünen Tasten mit einem schwarzen Kreuz Zum Vergrößern, auf den grünen Button mit einem Gedankenstrich zu verkleinern, oder auf die grünen Pfeile für benachbarte Karten.


METAR-TAF: